Time;durP1;ratioP1;P1;durP2;ratioP2;P2;SDS_P1;SDS_P2;PMS_P1;PMS_P2;Temp;Humidity;BMP_temperature;BMP_pressure;BME280_temperature;BME280_humidity;BME280_pressure;Samples;Min_cycle;Max_cycle;Signal;HPM_P1;HPM_P2
2022/11/28 00:01:08;;;;;;;57.83;25.23;;;14.30;60.60;;;;;;4919103;29;20349;-83
2022/11/28 00:03:33;;;;;;;60.80;25.77;;;14.50;60.50;;;;;;4915685;29;20470;-84
2022/11/28 00:06:03;;;;;;;57.17;25.35;;;14.60;60.40;;;;;;4912845;29;20020;-83
2022/11/28 00:08:29;;;;;;;62.08;25.90;;;14.50;60.30;;;;;;4919144;29;20495;-84
2022/11/28 00:10:55;;;;;;;61.65;25.42;;;14.50;60.90;;;;;;4919147;29;20348;-83
2022/11/28 00:13:21;;;;;;;55.67;25.42;;;14.60;60.10;;;;;;4915768;29;20494;-83
2022/11/28 00:15:57;;;;;;;58.60;25.90;;;14.80;59.90;;;;;;4919136;29;20031;-84
2022/11/28 00:18:23;;;;;;;73.80;25.88;;;14.90;59.50;;;;;;4919470;29;20035;-84
2022/11/28 00:20:49;;;;;;;60.20;25.60;;;15.00;59.50;;;;;;4912940;29;20024;-89
2022/11/28 00:23:14;;;;;;;59.28;25.77;;;14.90;59.60;;;;;;4927828;29;20034;-83
2022/11/28 00:25:40;;;;;;;60.33;25.50;;;14.80;59.60;;;;;;4915817;29;20069;-84
2022/11/28 00:28:05;;;;;;;62.25;26.02;;;14.60;60.10;;;;;;4926962;29;20036;-83
2022/11/28 00:30:35;;;;;;;61.05;25.70;;;14.70;60.00;;;;;;4919405;29;20024;-86
2022/11/28 00:33:01;;;;;;;54.25;25.58;;;14.70;59.90;;;;;;4919359;29;20024;-83
2022/11/28 00:35:26;;;;;;;46.20;22.85;;;14.40;60.50;;;;;;4918863;29;20038;-84
2022/11/28 00:37:52;;;;;;;56.17;24.88;;;14.40;60.50;;;;;;4919175;29;20078;-82
2022/11/28 00:40:18;;;;;;;55.75;25.88;;;14.40;60.70;;;;;;4919367;29;20027;-84
2022/11/28 00:42:43;;;;;;;59.05;24.63;;;14.50;60.50;;;;;;4936031;29;20099;-83
2022/11/28 00:45:09;;;;;;;57.63;24.65;;;14.60;60.40;;;;;;4918898;29;20058;-81
2022/11/28 00:47:35;;;;;;;56.03;25.10;;;14.60;59.90;;;;;;4918844;29;20063;-82
2022/11/28 00:50:00;;;;;;;52.03;22.58;;;14.70;59.80;;;;;;4918919;29;20028;-84
2022/11/28 00:52:26;;;;;;;60.67;25.42;;;14.70;60.20;;;;;;4921946;29;20031;-87
2022/11/28 00:54:52;;;;;;;70.03;27.20;;;14.70;60.00;;;;;;4940161;29;20015;-83
2022/11/28 00:57:17;;;;;;;63.85;26.95;;;14.70;60.10;;;;;;4923249;29;20444;-84
2022/11/28 00:59:43;;;;;;;74.28;26.38;;;14.70;59.90;;;;;;4922421;29;20024;-83
2022/11/28 01:02:09;;;;;;;62.50;25.80;;;14.60;60.00;;;;;;4919425;29;20112;-86
2022/11/28 01:04:34;;;;;;;68.97;26.00;;;14.70;59.90;;;;;;4922444;29;20034;-84
2022/11/28 01:07:01;;;;;;;60.05;24.63;;;14.70;59.90;;;;;;4921863;29;20051;-85
2022/11/28 01:09:27;;;;;;;58.75;25.25;;;14.60;60.00;;;;;;4922933;29;20019;-82
2022/11/28 01:11:53;;;;;;;72.32;26.65;;;14.60;60.00;;;;;;4921707;29;20024;-85
2022/11/28 01:14:22;;;;;;;66.40;26.60;;;14.70;60.00;;;;;;4918480;29;20016;-84
2022/11/28 01:16:50;;;;;;;60.42;26.13;;;14.80;59.80;;;;;;4933996;29;20044;-84
2022/11/28 01:19:16;;;;;;;58.80;24.08;;;14.80;59.70;;;;;;4921746;29;20034;-83
2022/11/28 01:21:42;;;;;;;64.70;26.13;;;14.70;59.70;;;;;;4921791;29;20407;-83
2022/11/28 01:24:08;;;;;;;60.60;25.52;;;14.50;60.30;;;;;;4941690;29;20402;-86
2022/11/28 01:26:33;;;;;;;64.03;25.73;;;14.60;60.10;;;;;;4922058;29;20031;-84
2022/11/28 01:28:59;;;;;;;63.60;25.23;;;14.50;60.60;;;;;;4904219;29;20376;-90
2022/11/28 01:31:27;;;;;;;66.38;24.60;;;14.60;60.10;;;;;;4911687;29;20145;-85
2022/11/28 01:33:54;;;;;;;64.68;24.70;;;14.60;60.30;;;;;;4925824;29;20494;-83
2022/11/28 01:36:21;;;;;;;62.28;23.15;;;14.60;60.40;;;;;;4921899;29;20035;-83
2022/11/28 01:38:47;;;;;;;54.70;23.98;;;14.70;60.10;;;;;;4908784;29;20024;-83
2022/11/28 01:41:19;;;;;;;58.25;23.55;;;14.70;60.20;;;;;;4935653;29;20023;-85
2022/11/28 01:44:17;;;;;;;55.67;23.45;;;14.70;59.80;;;;;;4902883;29;20490;-83
2022/11/28 01:46:43;;;;;;;64.55;25.88;;;14.30;60.30;;;;;;4843198;29;20104;-85
2022/11/28 01:49:17;;;;;;;55.92;22.95;;;14.00;61.30;;;;;;4843303;29;20038;-83
2022/11/28 01:51:48;;;;;;;70.90;26.58;;;14.00;61.50;;;;;;4860945;29;20029;-84
2022/11/28 01:54:14;;;;;;;;;;;14.20;61.00;;;;;;4862124;29;20134;-83
2022/11/28 01:56:50;;;;;;;52.00;22.05;;;14.40;60.80;;;;;;4845837;29;19994;-84
2022/11/28 01:59:18;;;;;;;58.03;23.42;;;14.60;60.20;;;;;;4863464;29;20440;-82
2022/11/28 02:01:44;;;;;;;52.47;23.30;;;14.60;60.10;;;;;;4850318;29;20487;-87
2022/11/28 02:04:12;;;;;;;61.53;24.75;;;14.60;60.10;;;;;;4845298;29;20030;-91
2022/11/28 02:06:40;;;;;;;64.15;25.17;;;14.60;60.30;;;;;;4846201;29;20155;-85
2022/11/28 02:09:10;;;;;;;69.68;25.27;;;14.60;60.10;;;;;;4846899;29;20389;-84
2022/11/28 02:11:38;;;;;;;72.57;26.55;;;14.80;60.10;;;;;;4864718;29;20123;-83
2022/11/28 02:14:38;;;;;;;69.15;26.08;;;14.70;60.20;;;;;;4864344;29;20029;-86
2022/11/28 02:17:39;;;;;;;70.38;26.00;;;14.60;59.90;;;;;;4863800;29;20049;-84
2022/11/28 02:20:44;;;;;;;67.25;27.02;;;14.50;60.30;;;;;;4826502;29;20068;-83
2022/11/28 02:23:37;;;;;;;70.68;26.40;;;14.60;60.20;;;;;;4831970;29;20381;-85
2022/11/28 02:26:30;;;;;;;69.95;25.98;;;14.40;60.80;;;;;;4844607;29;20062;-84
2022/11/28 02:29:13;;;;;;;73.15;26.02;;;14.50;60.40;;;;;;4859994;29;20074;-83
2022/11/28 02:32:04;;;;;;;73.13;26.60;;;14.40;60.70;;;;;;4844589;29;20036;-83
2022/11/28 02:34:49;;;;;;;74.43;27.50;;;14.50;61.00;;;;;;4844620;29;20162;-84
2022/11/28 02:37:44;;;;;;;69.05;25.85;;;14.60;60.60;;;;;;4827450;29;20434;-83
2022/11/28 02:40:32;;;;;;;63.47;25.35;;;14.70;60.20;;;;;;4841649;29;20062;-83
2022/11/28 02:42:57;;;;;;;65.93;26.48;;;14.80;60.50;;;;;;4841777;29;20036;-83
2022/11/28 02:45:34;;;;;;;75.07;28.20;;;14.70;60.00;;;;;;4840736;29;20325;-82
2022/11/28 02:48:07;;;;;;;72.32;28.02;;;14.70;60.40;;;;;;4844634;29;20033;-84
2022/11/28 02:51:03;;;;;;;82.05;28.98;;;14.70;60.60;;;;;;4858943;29;20037;-88
2022/11/28 02:53:31;;;;;;;82.85;29.65;;;14.70;60.30;;;;;;4852387;29;20034;-85
2022/11/28 02:55:59;;;;;;;84.35;29.67;;;14.90;59.90;;;;;;4832784;29;20033;-83
2022/11/28 02:58:25;;;;;;;79.82;29.13;;;14.90;59.60;;;;;;4915961;29;20034;-83
2022/11/28 03:00:51;;;;;;;79.47;29.77;;;14.90;59.90;;;;;;4922188;29;20043;-83
2022/11/28 03:03:35;;;;;;;87.30;28.55;;;14.70;60.70;;;;;;4918373;29;20111;-84
2022/11/28 03:06:21;;;;;;;78.07;30.20;;;14.70;60.30;;;;;;4936221;29;20444;-86
2022/11/28 03:08:56;;;;;;;70.72;27.58;;;14.30;61.40;;;;;;4919234;29;20036;-86
2022/11/28 03:11:35;;;;;;;74.80;27.80;;;14.20;60.90;;;;;;4919008;29;20027;-84
2022/11/28 03:14:14;;;;;;;75.85;28.23;;;14.00;61.80;;;;;;4918887;29;20539;-83
2022/11/28 03:17:24;;;;;;;61.55;25.55;;;13.90;61.90;;;;;;4896146;29;1192251;-84
2022/11/28 03:20:05;;;;;;;77.22;29.25;;;13.80;61.90;;;;;;4914773;29;20047;-85
2022/11/28 03:22:57;;;;;;;76.55;29.25;;;13.70;62.90;;;;;;4919984;29;20038;-86
2022/11/28 03:25:33;;;;;;;70.60;28.05;;;13.80;62.20;;;;;;4910440;29;20024;-83
2022/11/28 03:28:07;;;;;;;68.53;27.40;;;13.70;63.00;;;;;;4902148;29;20449;-86
2022/11/28 03:31:04;;;;;;;63.38;26.48;;;13.80;62.30;;;;;;4901389;29;20055;-91
2022/11/28 03:33:34;;;;;;;69.22;27.67;;;13.40;63.50;;;;;;4863128;29;20119;-85
2022/11/28 03:36:10;;;;;;;71.18;29.17;;;13.40;62.70;;;;;;4849561;29;20505;-85
2022/11/28 03:38:40;;;;;;;81.60;28.70;;;13.60;62.90;;;;;;4859490;29;20682;-84
2022/11/28 03:41:16;;;;;;;69.47;26.90;;;13.80;62.80;;;;;;4859364;29;20018;-83
2022/11/28 03:43:49;;;;;;;81.82;28.15;;;13.80;62.20;;;;;;4868865;29;20060;-84
2022/11/28 03:46:19;;;;;;;73.55;27.17;;;13.80;62.50;;;;;;4862535;29;20021;-83
2022/11/28 03:48:49;;;;;;;68.90;28.35;;;13.70;62.50;;;;;;4878554;29;20115;-83
2022/11/28 03:51:17;;;;;;;;;;;13.60;63.00;;;;;;4875605;29;20030;-83
2022/11/28 03:53:53;;;;;;;65.95;27.13;;;13.70;62.80;;;;;;4859494;29;19904;-84
2022/11/28 03:56:29;;;;;;;71.93;26.52;;;13.70;62.80;;;;;;4862526;29;20025;-84
2022/11/28 03:59:04;;;;;;;67.13;26.48;;;13.50;63.20;;;;;;4877934;29;20100;-85
2022/11/28 04:02:08;;;;;;;72.32;27.83;;;13.50;63.40;;;;;;4862599;29;20032;-82
2022/11/28 04:04:57;;;;;;;65.18;26.98;;;13.50;63.30;;;;;;4804769;29;20047;-83
2022/11/28 04:07:35;;;;;;;66.38;25.15;;;13.60;62.80;;;;;;4789671;29;20042;-82
2022/11/28 04:10:21;;;;;;;64.15;26.05;;;13.80;62.20;;;;;;4801929;29;20040;-84
2022/11/28 04:13:07;;;;;;;61.63;26.38;;;13.80;62.50;;;;;;4841226;29;20130;-83
2022/11/28 04:15:42;;;;;;;59.33;24.90;;;13.90;62.20;;;;;;4841144;29;20061;-84
2022/11/28 04:18:38;;;;;;;69.03;25.27;;;14.10;61.30;;;;;;4841336;29;20052;-89
2022/11/28 04:21:21;;;;;;;64.72;25.42;;;14.10;61.40;;;;;;4786743;30;20365;-90
2022/11/28 04:23:49;;;;;;;60.92;25.83;;;14.30;60.80;;;;;;4787018;30;20063;-84
2022/11/28 04:26:32;;;;;;;60.60;25.35;;;14.20;60.70;;;;;;4772812;30;20392;-83
2022/11/28 04:29:01;;;;;;;57.55;24.17;;;14.10;61.40;;;;;;4775609;30;20070;-84
2022/11/28 04:31:27;;;;;;;59.50;25.98;;;13.80;61.50;;;;;;4782652;29;20038;-85
2022/11/28 04:33:57;;;;;;;63.17;25.23;;;13.30;63.20;;;;;;4785008;30;20376;-83
2022/11/28 04:36:25;;;;;;;50.72;22.48;;;13.20;63.70;;;;;;4790301;29;20031;-84
2022/11/28 04:38:55;;;;;;;64.70;24.90;;;13.30;63.20;;;;;;4790050;30;20035;-83
2022/11/28 04:41:45;;;;;;;58.50;24.73;;;13.50;62.60;;;;;;4839385;29;20037;-92
2022/11/28 04:44:14;;;;;;;62.00;25.00;;;13.70;62.00;;;;;;4881209;29;20025;-91
2022/11/28 04:46:46;;;;;;;64.90;26.42;;;13.80;61.80;;;;;;4865443;29;20052;-83
2022/11/28 04:49:12;;;;;;;67.40;28.65;;;13.70;62.10;;;;;;4865543;29;20056;-86
2022/11/28 04:52:08;;;;;;;59.17;24.80;;;13.80;61.30;;;;;;4865310;29;20033;-84
2022/11/28 04:54:49;;;;;;;54.42;23.95;;;13.90;61.30;;;;;;4865683;29;20029;-84
2022/11/28 04:57:17;;;;;;;;;;;13.80;61.10;;;;;;4877038;29;20480;-83
2022/11/28 04:59:45;;;;;;;59.60;26.95;;;13.60;61.40;;;;;;4918920;29;19903;-84
2022/11/28 05:02:13;;;;;;;58.25;25.27;;;13.50;61.80;;;;;;4915245;29;20023;-85
2022/11/28 05:04:41;;;;;;;59.20;25.77;;;13.70;61.20;;;;;;4918998;29;20024;-84
2022/11/28 05:07:08;;;;;;;56.92;24.52;;;13.80;61.00;;;;;;4919545;29;20488;-83
2022/11/28 05:09:33;;;;;;;51.17;22.20;;;14.00;60.40;;;;;;4905590;29;20028;-89
2022/11/28 05:11:59;;;;;;;56.85;25.35;;;14.10;60.40;;;;;;4939869;29;20030;-83
2022/11/28 05:14:25;;;;;;;54.28;23.48;;;14.00;60.80;;;;;;4939229;29;20359;-82
2022/11/28 05:16:51;;;;;;;64.07;24.67;;;13.90;60.50;;;;;;4918630;29;20044;-85
2022/11/28 05:19:17;;;;;;;60.78;25.33;;;13.60;61.30;;;;;;4903548;29;20050;-83
2022/11/28 05:21:43;;;;;;;61.72;26.55;;;13.70;61.20;;;;;;4941026;29;20027;-83
2022/11/28 05:24:09;;;;;;;55.75;24.15;;;13.70;61.70;;;;;;4922194;29;20024;-83
2022/11/28 05:26:36;;;;;;;60.70;26.42;;;13.90;60.70;;;;;;4920642;29;20363;-82
2022/11/28 05:29:03;;;;;;;65.95;25.35;;;13.90;60.50;;;;;;4939019;29;20106;-86
2022/11/28 05:31:29;;;;;;;60.78;26.23;;;13.90;61.00;;;;;;4911017;29;20461;-92
2022/11/28 05:33:55;;;;;;;63.20;26.30;;;14.00;60.50;;;;;;4928179;29;20039;-87
2022/11/28 05:36:21;;;;;;;59.42;26.30;;;14.00;60.30;;;;;;4910848;29;20035;-83
2022/11/28 05:38:48;;;;;;;62.70;26.13;;;14.10;60.50;;;;;;4920912;29;20024;-82
2022/11/28 05:41:28;;;;;;;66.45;25.70;;;14.10;60.40;;;;;;4921643;29;20052;-82
2022/11/28 05:43:55;;;;;;;65.10;25.75;;;14.00;61.10;;;;;;4921481;29;20027;-82
2022/11/28 05:46:21;;;;;;;67.68;27.48;;;13.90;60.60;;;;;;4918223;29;20024;-83
2022/11/28 05:48:47;;;;;;;64.07;26.58;;;13.90;60.50;;;;;;4903202;29;20043;-83
2022/11/28 05:51:13;;;;;;;64.25;26.77;;;14.10;60.50;;;;;;4950809;29;20020;-83
2022/11/28 05:53:38;;;;;;;66.50;25.75;;;14.10;60.30;;;;;;4904749;29;20032;-84
2022/11/28 05:56:14;;;;;;;61.38;25.25;;;14.20;60.10;;;;;;4918399;29;20039;-83
2022/11/28 05:58:40;;;;;;;72.05;27.42;;;14.10;60.20;;;;;;4921363;29;20042;-81
2022/11/28 06:01:16;;;;;;;61.65;25.08;;;13.80;60.80;;;;;;4921551;29;20026;-84
2022/11/28 06:03:42;;;;;;;59.78;24.27;;;13.80;61.00;;;;;;4921306;29;20451;-82
2022/11/28 06:06:16;;;;;;;69.10;28.17;;;13.70;60.60;;;;;;4921523;29;20032;-82
2022/11/28 06:08:43;;;;;;;65.90;26.08;;;13.80;60.90;;;;;;4902680;29;20472;-87
2022/11/28 06:11:09;;;;;;;58.25;24.55;;;14.00;60.60;;;;;;4910014;29;20028;-84
2022/11/28 06:13:35;;;;;;;55.08;24.17;;;13.70;61.20;;;;;;4938243;29;20027;-86
2022/11/28 06:16:01;;;;;;;61.58;25.83;;;13.60;61.50;;;;;;4921563;29;20035;-90
2022/11/28 06:18:27;;;;;;;52.72;22.95;;;13.50;62.20;;;;;;4906527;29;20027;-90
2022/11/28 06:20:53;;;;;;;60.50;25.55;;;13.70;61.00;;;;;;4902697;29;20431;-84
2022/11/28 06:23:19;;;;;;;53.15;24.00;;;13.80;61.00;;;;;;4901956;29;20024;-90
2022/11/28 06:25:44;;;;;;;58.05;25.88;;;13.80;61.10;;;;;;4919144;29;20039;-85
2022/11/28 06:28:10;;;;;;;52.42;22.25;;;13.80;61.10;;;;;;4919315;29;20502;-86
2022/11/28 06:30:36;;;;;;;59.63;24.60;;;13.70;60.50;;;;;;4904654;29;20440;-87
2022/11/28 06:33:01;;;;;;;54.78;23.73;;;13.40;62.00;;;;;;4901828;29;20024;-83
2022/11/28 06:35:27;;;;;;;57.95;24.38;;;13.50;61.90;;;;;;4563677;29;9999987;-82
2022/11/28 06:37:53;;;;;;;54.42;23.67;;;13.90;61.00;;;;;;4926333;29;20079;-93
2022/11/28 06:40:18;;;;;;;57.63;23.35;;;14.10;60.40;;;;;;4927972;29;20382;-84
2022/11/28 06:42:44;;;;;;;53.60;23.38;;;14.20;60.00;;;;;;4933124;29;20052;-85
2022/11/28 06:45:10;;;;;;;55.20;24.30;;;14.00;60.60;;;;;;4918483;29;20476;-82
2022/11/28 06:47:38;;;;;;;51.67;24.55;;;13.90;60.80;;;;;;4948878;29;20035;-91
2022/11/28 06:50:11;;;;;;;54.25;24.17;;;13.80;60.70;;;;;;4905601;29;20523;-92
2022/11/28 06:52:36;;;;;;;49.88;23.85;;;13.80;60.50;;;;;;4902880;29;20024;-87
2022/11/28 06:55:02;;;;;;;50.05;22.70;;;13.70;61.10;;;;;;4901377;29;20026;-85
2022/11/28 06:57:28;;;;;;;56.55;24.13;;;13.80;61.00;;;;;;4900808;29;20129;-93
2022/11/28 06:59:54;;;;;;;54.85;23.02;;;14.00;60.50;;;;;;4924603;29;20024;-81
2022/11/28 07:02:19;;;;;;;51.85;24.58;;;13.90;60.60;;;;;;4903248;29;20437;-87
2022/11/28 07:04:45;;;;;;;52.78;23.13;;;13.90;60.90;;;;;;4903210;29;20383;-92
2022/11/28 07:07:10;;;;;;;47.33;21.73;;;13.90;60.80;;;;;;4932986;29;20043;-83
2022/11/28 07:09:36;;;;;;;54.15;23.88;;;13.90;60.50;;;;;;4918461;29;20020;-86
2022/11/28 07:12:02;;;;;;;50.80;22.98;;;13.80;60.50;;;;;;4918416;29;20452;-85
2022/11/28 07:14:27;;;;;;;48.55;22.33;;;13.70;60.80;;;;;;4917139;29;20901;-82
2022/11/28 07:16:53;;;;;;;52.65;22.90;;;13.80;60.40;;;;;;4927510;29;20056;-83
2022/11/28 07:19:21;;;;;;;50.13;22.65;;;13.40;61.40;;;;;;4915284;29;20062;-82
2022/11/28 07:21:48;;;;;;;54.05;24.88;;;13.30;61.00;;;;;;4896629;29;20056;-86
2022/11/28 07:24:16;;;;;;;52.65;23.73;;;12.90;62.30;;;;;;4887694;29;20036;-84
2022/11/28 07:26:41;;;;;;;50.75;23.10;;;12.60;63.30;;;;;;4900213;29;20024;-86
2022/11/28 07:29:12;;;;;;;45.10;21.27;;;12.70;62.90;;;;;;4900970;29;20380;-84
2022/11/28 07:31:38;;;;;;;49.10;22.23;;;12.30;63.60;;;;;;4882408;29;20024;-89
2022/11/28 07:34:03;;;;;;;54.65;24.05;;;12.20;64.30;;;;;;4900475;29;20363;-84
2022/11/28 07:36:30;;;;;;;50.10;22.63;;;12.40;64.50;;;;;;4900378;29;20360;-83
2022/11/28 07:38:58;;;;;;;54.28;22.73;;;12.80;62.90;;;;;;4897958;29;20072;-83
2022/11/28 07:41:24;;;;;;;50.70;23.48;;;13.10;62.50;;;;;;4891458;29;20029;-85
2022/11/28 07:43:55;;;;;;;49.85;24.13;;;13.50;61.50;;;;;;4901421;29;20118;-84
2022/11/28 07:46:21;;;;;;;42.85;22.42;;;13.40;61.50;;;;;;4897393;29;20017;-84
2022/11/28 07:48:50;;;;;;;51.15;23.75;;;13.50;61.30;;;;;;4891955;29;20100;-84
2022/11/28 07:51:24;;;;;;;50.53;22.52;;;13.70;60.90;;;;;;4904251;29;20015;-84
2022/11/28 07:53:50;;;;;;;47.88;23.38;;;13.60;60.10;;;;;;4884876;29;20421;-83
2022/11/28 07:56:19;;;;;;;50.30;22.92;;;13.30;60.70;;;;;;4890881;29;20112;-83
2022/11/28 07:58:46;;;;;;;51.30;24.23;;;13.10;61.80;;;;;;4886324;29;20088;-85
2022/11/28 08:01:25;;;;;;;46.13;23.05;;;12.90;62.10;;;;;;4900187;29;20031;-82
2022/11/28 08:03:51;;;;;;;42.10;21.63;;;12.70;62.50;;;;;;4900839;29;20020;-83
2022/11/28 08:06:22;;;;;;;52.20;23.95;;;12.70;62.90;;;;;;4890565;29;20061;-82
2022/11/28 08:08:49;;;;;;;46.22;22.60;;;12.90;62.30;;;;;;4901130;29;20131;-81
2022/11/28 08:11:17;;;;;;;49.17;22.40;;;13.30;62.10;;;;;;4890336;29;20032;-90
2022/11/28 08:13:43;;;;;;;44.75;21.30;;;13.50;60.90;;;;;;4881825;29;20044;-83
2022/11/28 08:16:13;;;;;;;46.53;22.27;;;13.40;60.80;;;;;;4899463;29;20040;-90
2022/11/28 08:18:39;;;;;;;45.75;21.80;;;12.90;62.30;;;;;;4919493;29;20031;-86
2022/11/28 08:21:10;;;;;;;42.08;20.30;;;13.20;61.80;;;;;;4919217;29;20083;-82
2022/11/28 08:23:37;;;;;;;46.83;22.17;;;13.00;61.90;;;;;;4919710;29;20083;-82
2022/11/28 08:26:09;;;;;;;49.33;21.35;;;12.80;62.50;;;;;;4919309;29;20050;-83
2022/11/28 08:28:35;;;;;;;41.22;20.80;;;13.00;62.50;;;;;;4918269;29;20098;-82
2022/11/28 08:31:17;;;;;;;47.20;23.35;;;13.10;62.20;;;;;;4918369;29;20024;-87
2022/11/28 08:33:44;;;;;;;42.60;20.05;;;13.50;61.90;;;;;;4918925;29;20023;-84
2022/11/28 08:36:13;;;;;;;40.50;20.35;;;14.00;60.50;;;;;;4916573;29;20051;-85
2022/11/28 08:38:42;;;;;;;40.40;19.73;;;13.60;60.50;;;;;;4918215;29;20111;-84
2022/11/28 08:41:14;;;;;;;39.75;20.05;;;13.40;60.80;;;;;;4906428;29;20028;-81
2022/11/28 08:43:39;;;;;;;42.35;20.63;;;13.20;60.90;;;;;;4919124;29;20546;-83
2022/11/28 08:46:08;;;;;;;47.13;24.65;;;12.60;62.80;;;;;;4919703;29;20030;-86
2022/11/28 08:48:35;;;;;;;101.43;44.70;;;12.80;62.40;;;;;;4919306;29;20054;-83
2022/11/28 08:51:01;;;;;;;51.88;25.50;;;12.70;62.80;;;;;;4919227;29;20110;-84
2022/11/28 08:53:26;;;;;;;35.55;18.80;;;12.90;61.80;;;;;;4919744;29;20123;-83
2022/11/28 08:55:52;;;;;;;48.30;23.70;;;12.60;61.60;;;;;;4936723;29;20019;-83
2022/11/28 08:58:18;;;;;;;67.65;32.03;;;12.10;63.30;;;;;;4919588;29;20091;-83
2022/11/28 09:00:44;;;;;;;48.60;24.65;;;12.10;63.90;;;;;;4919306;29;20035;-83
2022/11/28 09:03:14;;;;;;;68.10;31.27;;;12.30;63.60;;;;;;4919542;29;20020;-83
2022/11/28 09:05:41;;;;;;;64.88;29.83;;;12.20;64.60;;;;;;4934681;29;20024;-83
2022/11/28 09:08:08;;;;;;;39.67;21.55;;;12.70;63.30;;;;;;4918724;29;20467;-83
2022/11/28 09:10:37;;;;;;;52.47;26.42;;;13.20;61.80;;;;;;4936187;29;20031;-83
2022/11/28 09:13:04;;;;;;;52.88;24.77;;;13.70;60.30;;;;;;4920750;29;20456;-84
2022/11/28 09:15:31;;;;;;;47.60;21.77;;;13.60;60.10;;;;;;4922409;29;20028;-83
2022/11/28 09:17:56;;;;;;;41.78;21.17;;;13.50;60.50;;;;;;4922766;29;20054;-83
2022/11/28 09:20:22;;;;;;;36.47;19.70;;;13.40;60.60;;;;;;4922437;29;20023;-84
2022/11/28 09:22:48;;;;;;;39.15;21.83;;;13.50;60.40;;;;;;4922879;29;20040;-83
2022/11/28 09:25:14;;;;;;;47.10;22.85;;;13.50;60.80;;;;;;4939588;29;20530;-83
2022/11/28 09:27:39;;;;;;;40.13;20.77;;;13.60;60.00;;;;;;4923119;29;20070;-84
2022/11/28 09:30:07;;;;;;;40.78;21.00;;;13.50;59.40;;;;;;4922376;29;20360;-83
2022/11/28 09:32:33;;;;;;;38.05;19.30;;;13.30;60.00;;;;;;4921922;29;20080;-81
2022/11/28 09:34:59;;;;;;;38.53;17.25;;;12.90;60.30;;;;;;4922230;29;20019;-83
2022/11/28 09:37:26;;;;;;;34.17;17.85;;;12.70;60.20;;;;;;4938987;29;20088;-82
2022/11/28 09:39:52;;;;;;;31.02;16.25;;;12.70;60.10;;;;;;4939366;29;20031;-85
2022/11/28 09:42:38;;;;;;;32.95;17.00;;;12.60;59.50;;;;;;4922447;29;20024;-86
2022/11/28 09:45:15;;;;;;;26.95;14.13;;;12.70;59.70;;;;;;4922236;29;20032;-84
2022/11/28 09:47:44;;;;;;;29.33;15.30;;;12.80;58.30;;;;;;4922389;29;20494;-83
2022/11/28 09:50:15;;;;;;;33.17;15.55;;;12.50;59.40;;;;;;4921755;29;20083;-83
2022/11/28 09:53:20;;;;;;;33.08;17.45;;;12.60;59.90;;;;;;4921392;29;20079;-84
2022/11/28 09:55:54;;;;;;;35.85;18.48;;;12.50;60.00;;;;;;4904669;29;20114;-83
2022/11/28 09:58:47;;;;;;;34.22;17.85;;;12.70;60.30;;;;;;4922090;29;20102;-83
2022/11/28 10:01:44;;;;;;;32.58;17.70;;;12.50;60.70;;;;;;4922175;29;20027;-81
2022/11/28 10:04:34;;;;;;;35.47;18.38;;;12.50;60.90;;;;;;4920880;29;20020;-82
2022/11/28 10:07:21;;;;;;;33.95;17.45;;;12.90;60.40;;;;;;4921569;29;20494;-83
2022/11/28 10:10:08;;;;;;;35.75;17.00;;;13.40;58.80;;;;;;4921639;29;20039;-84
2022/11/28 10:12:51;;;;;;;29.88;17.33;;;13.80;58.50;;;;;;4921256;29;20495;-84
2022/11/28 10:15:49;;;;;;;31.58;17.73;;;13.70;57.60;;;;;;4921420;29;20027;-83
2022/11/28 10:18:32;;;;;;;34.63;18.65;;;13.50;58.70;;;;;;4913621;29;20040;-84
2022/11/28 10:21:03;;;;;;;34.30;18.80;;;13.70;58.00;;;;;;4921078;29;20047;-85
2022/11/28 10:23:39;;;;;;;37.47;18.88;;;13.80;58.40;;;;;;4920897;29;20114;-83
2022/11/28 10:26:14;;;;;;;38.42;20.17;;;13.90;59.00;;;;;;4921077;29;20538;-83
2022/11/28 10:28:46;;;;;;;38.42;20.63;;;13.60;58.70;;;;;;4921195;29;20032;-84
2022/11/28 10:31:15;;;;;;;34.60;19.48;;;13.50;58.90;;;;;;4921455;29;20116;-83
2022/11/28 10:33:49;;;;;;;36.53;19.23;;;13.00;59.30;;;;;;4921182;29;20020;-84
2022/11/28 10:36:32;;;;;;;31.50;18.20;;;13.00;60.10;;;;;;4920870;29;20020;-84
2022/11/28 10:39:04;;;;;;;34.58;19.10;;;13.30;59.80;;;;;;4920842;29;20028;-83
2022/11/28 10:41:39;;;;;;;33.13;18.55;;;13.40;58.30;;;;;;4921027;29;20056;-84
2022/11/28 10:44:26;;;;;;;40.67;21.17;;;13.00;58.70;;;;;;4921113;29;20035;-85
2022/11/28 10:47:02;;;;;;;41.38;21.30;;;12.60;59.80;;;;;;4921268;29;20374;-83
2022/11/28 10:49:55;;;;;;;36.10;20.42;;;12.50;61.00;;;;;;4921048;29;20040;-85
2022/11/28 10:52:27;;;;;;;47.55;24.45;;;12.70;59.80;;;;;;4920889;29;20040;-82
2022/11/28 10:55:01;;;;;;;45.15;24.25;;;12.70;59.70;;;;;;4920764;29;20030;-83
2022/11/28 10:57:58;;;;;;;33.72;18.50;;;12.50;60.20;;;;;;4920918;29;20012;-84
2022/11/28 11:00:24;;;;;;;36.30;18.65;;;12.40;59.10;;;;;;4920686;29;20059;-83
2022/11/28 11:02:51;;;;;;;33.05;18.00;;;12.30;60.00;;;;;;4937507;29;20412;-84
2022/11/28 11:05:19;;;;;;;34.60;19.08;;;12.30;59.70;;;;;;4920518;29;20026;-84
2022/11/28 11:08:02;;;;;;;30.98;16.65;;;12.50;59.70;;;;;;4920489;29;20032;-84
2022/11/28 11:10:35;;;;;;;28.95;17.00;;;13.00;58.20;;;;;;4920355;29;20038;-85
2022/11/28 11:13:32;;;;;;;31.98;18.15;;;13.10;58.00;;;;;;4937287;29;20023;-84
2022/11/28 11:16:00;;;;;;;34.97;19.13;;;13.60;57.60;;;;;;4918256;29;20107;-82
2022/11/28 11:18:29;;;;;;;32.13;18.42;;;13.60;57.50;;;;;;4920242;29;20091;-84
2022/11/28 11:21:12;;;;;;;36.97;21.10;;;13.30;57.60;;;;;;4920044;29;20506;-84
2022/11/28 11:23:37;;;;;;;38.15;20.45;;;13.30;58.00;;;;;;4920193;29;20032;-84
2022/11/28 11:26:08;;;;;;;40.13;22.70;;;13.80;57.20;;;;;;4919924;29;20019;-83
2022/11/28 11:28:46;;;;;;;29.00;16.33;;;13.70;56.10;;;;;;4920303;29;20043;-86
2022/11/28 11:31:20;;;;;;;32.42;18.65;;;13.80;56.70;;;;;;4920290;29;20478;-83
2022/11/28 11:33:50;;;;;;;28.08;16.05;;;13.30;57.30;;;;;;4920078;29;20415;-83
2022/11/28 11:36:30;;;;;;;29.58;15.27;;;13.10;57.20;;;;;;4919819;29;20028;-83
2022/11/28 11:39:14;;;;;;;28.55;17.00;;;13.20;57.50;;;;;;4937195;29;20036;-84
2022/11/28 11:41:48;;;;;;;26.25;15.55;;;12.90;57.70;;;;;;4936989;29;20371;-84
2022/11/28 11:44:13;;;;;;;28.25;16.80;;;12.90;57.30;;;;;;4919967;29;20479;-83
2022/11/28 11:46:53;;;;;;;30.17;17.70;;;12.90;58.00;;;;;;4919696;29;20059;-85
2022/11/28 11:49:42;;;;;;;29.85;15.35;;;13.10;57.10;;;;;;4919736;29;20042;-83
2022/11/28 11:52:13;;;;;;;27.05;15.18;;;13.00;57.40;;;;;;4919686;29;20106;-83
2022/11/28 11:54:57;;;;;;;28.85;16.27;;;12.60;58.30;;;;;;4919859;29;20467;-84
2022/11/28 11:57:45;;;;;;;29.80;16.17;;;12.40;58.50;;;;;;4919560;29;20023;-83
2022/11/28 12:00:21;;;;;;;30.05;16.00;;;12.60;58.80;;;;;;4919720;29;20027;-84
2022/11/28 12:02:58;;;;;;;28.05;15.45;;;12.90;57.90;;;;;;4919939;29;20371;-83
2022/11/28 12:05:51;;;;;;;30.13;16.20;;;13.00;58.20;;;;;;4919518;29;20019;-83
2022/11/28 12:08:32;;;;;;;29.58;15.68;;;12.90;57.80;;;;;;4906882;29;20043;-83
2022/11/28 12:11:04;;;;;;;31.48;17.27;;;12.90;57.70;;;;;;4936543;29;20027;-84
2022/11/28 12:13:31;;;;;;;31.70;16.50;;;12.60;57.60;;;;;;4936288;29;20094;-82
2022/11/28 12:16:24;;;;;;;27.27;15.75;;;12.20;57.70;;;;;;4919377;29;20030;-83
2022/11/28 12:18:58;;;;;;;32.58;16.77;;;11.60;59.30;;;;;;4919262;29;20035;-85
2022/11/28 12:21:46;;;;;;;30.45;17.10;;;11.60;59.50;;;;;;4936327;29;20032;-83
2022/11/28 12:24:19;;;;;;;36.00;19.00;;;12.00;59.20;;;;;;4919412;29;20039;-83
2022/11/28 12:26:52;;;;;;;32.28;17.40;;;12.30;58.70;;;;;;4935958;29;20024;-84
2022/11/28 12:29:36;;;;;;;27.85;15.15;;;12.50;58.40;;;;;;4936064;29;20055;-83
2022/11/28 12:32:46;;;;;;;28.95;16.15;;;12.90;57.60;;;;;;4919318;29;20019;-83
2022/11/28 12:35:35;;;;;;;29.90;17.10;;;13.00;57.20;;;;;;4859167;29;20069;-83
2022/11/28 12:38:37;;;;;;;36.45;17.83;;;12.70;57.30;;;;;;4843729;29;20116;-84
2022/11/28 12:41:26;;;;;;;36.47;18.63;;;13.10;57.60;;;;;;4859475;29;20503;-84
2022/11/28 12:44:18;;;;;;;28.85;15.43;;;13.50;56.50;;;;;;4854124;29;20034;-83
2022/11/28 12:47:12;;;;;;;31.67;16.27;;;13.40;56.10;;;;;;4843438;29;20037;-84
2022/11/28 12:50:15;;;;;;;33.35;17.33;;;13.50;56.50;;;;;;4862706;29;20144;-83
2022/11/28 12:53:05;;;;;;;30.23;16.15;;;13.20;56.40;;;;;;4847217;29;20120;-83
2022/11/28 12:55:34;;;;;;;32.05;17.30;;;13.00;56.60;;;;;;4862690;29;20038;-83
2022/11/28 12:58:20;;;;;;;32.50;17.13;;;12.80;56.70;;;;;;4847155;29;20026;-83